createdAt,value
2018-02-13T00:00:21.616Z,13.70
2018-02-13T00:01:21.605Z,13.40
2018-02-13T00:02:21.589Z,13.60
2018-02-13T00:03:21.584Z,13.30
2018-02-13T00:04:21.575Z,12.90
2018-02-13T00:05:21.562Z,13.30
2018-02-13T00:06:21.553Z,13.10
2018-02-13T00:07:21.545Z,13.50
2018-02-13T00:08:21.535Z,13.30
2018-02-13T00:09:21.525Z,13.30
2018-02-13T00:10:21.515Z,13.50
2018-02-13T00:11:21.510Z,13.40
2018-02-13T00:12:21.498Z,13.30
2018-02-13T00:13:21.488Z,14.00
2018-02-13T00:14:21.476Z,13.20
2018-02-13T00:15:21.466Z,13.50
2018-02-13T00:16:21.457Z,13.80
2018-02-13T00:17:21.443Z,13.70
2018-02-13T00:18:21.437Z,13.30
2018-02-13T00:19:21.428Z,13.90
2018-02-13T00:20:21.421Z,13.90
2018-02-13T00:21:21.417Z,13.80
2018-02-13T00:22:21.399Z,14.00
2018-02-13T00:23:21.394Z,14.00
2018-02-13T00:24:21.381Z,14.20
2018-02-13T00:25:21.371Z,14.00
2018-02-13T00:26:21.359Z,13.50
2018-02-13T00:27:21.355Z,14.30
2018-02-13T00:28:21.336Z,13.50
2018-02-13T00:29:21.348Z,14.50
2018-02-13T00:30:21.319Z,13.70
2018-02-13T00:31:21.314Z,14.00
2018-02-13T00:32:21.302Z,13.90
2018-02-13T00:33:21.292Z,14.00
2018-02-13T00:34:21.282Z,14.50
2018-02-13T00:35:21.273Z,14.00
2018-02-13T00:36:21.258Z,14.10
2018-02-13T00:37:21.267Z,14.00
2018-02-13T00:38:21.243Z,14.50
2018-02-13T00:39:21.232Z,14.50
2018-02-13T00:40:21.222Z,14.50
2018-02-13T00:41:21.213Z,14.20
2018-02-13T00:42:21.198Z,14.20
2018-02-13T00:43:21.194Z,14.30
2018-02-13T00:44:21.180Z,14.20
2018-02-13T00:45:21.195Z,14.10
2018-02-13T00:46:21.162Z,13.80
2018-02-13T00:47:21.156Z,14.00
2018-02-13T00:48:21.146Z,14.30
2018-02-13T00:49:21.134Z,13.30
2018-02-13T00:50:21.124Z,13.90
2018-02-13T00:51:21.125Z,14.10
2018-02-13T00:52:21.110Z,13.50
2018-02-13T00:53:21.095Z,13.80
2018-02-13T00:54:21.086Z,13.10
2018-02-13T00:55:21.077Z,13.20
2018-02-13T00:56:21.068Z,13.40
2018-02-13T00:57:21.058Z,13.60
2018-02-13T00:58:21.046Z,13.40
2018-02-13T00:59:21.039Z,13.20
2018-02-13T01:00:21.026Z,13.60
2018-02-13T01:01:21.019Z,13.70
2018-02-13T01:02:21.007Z,13.50
2018-02-13T01:03:20.999Z,13.60
2018-02-13T01:04:20.989Z,13.20
2018-02-13T01:05:20.979Z,13.40
2018-02-13T01:06:20.969Z,13.10
2018-02-13T01:07:20.960Z,13.20
2018-02-13T01:08:20.950Z,13.30
2018-02-13T01:09:20.947Z,13.40
2018-02-13T01:10:20.935Z,13.00
2018-02-13T01:11:20.921Z,13.60
2018-02-13T01:12:20.915Z,13.40
2018-02-13T01:13:20.904Z,13.30
2018-02-13T01:14:20.890Z,13.20
2018-02-13T01:15:20.881Z,13.40
2018-02-13T01:16:20.873Z,13.50
2018-02-13T01:17:20.868Z,13.40
2018-02-13T01:18:20.851Z,13.80
2018-02-13T01:19:20.843Z,13.10
2018-02-13T01:20:20.837Z,13.80
2018-02-13T01:21:20.823Z,13.30
2018-02-13T01:22:20.813Z,13.80
2018-02-13T01:23:20.805Z,13.50
2018-02-13T01:24:20.794Z,13.90
2018-02-13T01:25:20.786Z,13.40
2018-02-13T01:26:20.774Z,14.20
2018-02-13T01:27:20.766Z,14.80
2018-02-13T01:28:20.756Z,14.40
2018-02-13T01:29:20.747Z,14.60
2018-02-13T01:30:20.735Z,14.60
2018-02-13T01:31:20.736Z,14.50
2018-02-13T01:32:20.714Z,14.70
2018-02-13T01:33:20.708Z,14.70
2018-02-13T01:34:20.696Z,14.80
2018-02-13T01:35:20.687Z,14.60
2018-02-13T01:36:20.678Z,14.50
2018-02-13T01:37:20.667Z,14.70
2018-02-13T01:38:20.658Z,15.00
2018-02-13T01:39:20.649Z,14.60
2018-02-13T01:40:20.640Z,15.50
2018-02-13T01:41:20.634Z,15.20
2018-02-13T01:42:20.621Z,15.00
2018-02-13T01:43:20.609Z,14.80
2018-02-13T01:44:20.602Z,15.00
2018-02-13T01:45:20.591Z,14.70
2018-02-13T01:46:20.581Z,15.60
2018-02-13T01:47:20.570Z,15.10
2018-02-13T01:48:20.565Z,14.70
2018-02-13T01:49:20.553Z,15.00
2018-02-13T01:50:20.543Z,14.70
2018-02-13T01:51:20.534Z,15.50
2018-02-13T01:52:20.525Z,14.80
2018-02-13T01:53:20.513Z,14.80
2018-02-13T01:54:20.502Z,15.50
2018-02-13T01:55:20.492Z,15.00
2018-02-13T01:56:20.480Z,14.80
2018-02-13T01:57:20.471Z,15.40
2018-02-13T01:58:20.462Z,15.60
2018-02-13T01:59:20.455Z,15.00
2018-02-13T02:00:20.444Z,15.00
2018-02-13T02:01:20.432Z,15.10
2018-02-13T02:02:20.423Z,15.60
2018-02-13T02:03:20.415Z,15.00
2018-02-13T02:04:20.404Z,15.10
2018-02-13T02:05:20.395Z,15.40
2018-02-13T02:06:20.386Z,15.10
2018-02-13T02:07:20.372Z,15.60
2018-02-13T02:08:20.367Z,15.30
2018-02-13T02:09:20.382Z,15.40
2018-02-13T02:10:20.345Z,15.70
2018-02-13T02:11:20.334Z,16.30
2018-02-13T02:12:20.325Z,16.00
2018-02-13T02:13:20.322Z,16.20
2018-02-13T02:14:20.304Z,15.60
2018-02-13T02:15:20.295Z,16.60
2018-02-13T02:16:20.289Z,16.30
2018-02-13T02:17:20.276Z,16.00
2018-02-13T02:18:20.267Z,15.60
2018-02-13T02:19:20.259Z,15.20
2018-02-13T02:20:20.260Z,15.80
2018-02-13T02:21:20.238Z,15.70
2018-02-13T02:22:20.226Z,16.10
2018-02-13T02:23:20.219Z,15.90
2018-02-13T02:24:20.210Z,16.30
2018-02-13T02:25:20.198Z,16.40
2018-02-13T02:26:20.188Z,16.30
2018-02-13T02:27:20.177Z,16.10
2018-02-13T02:28:20.191Z,16.20
2018-02-13T02:29:20.161Z,15.60
2018-02-13T02:30:20.149Z,16.50
2018-02-13T02:31:20.140Z,16.00
2018-02-13T02:32:20.128Z,16.00
2018-02-13T02:33:20.121Z,16.90
2018-02-13T02:34:20.106Z,16.90
2018-02-13T02:35:20.099Z,16.70
2018-02-13T02:36:20.091Z,16.50
2018-02-13T02:37:20.080Z,16.80
2018-02-13T02:38:20.068Z,16.90
2018-02-13T02:39:20.060Z,16.40
2018-02-13T02:40:20.053Z,17.30
2018-02-13T02:41:20.045Z,16.80
2018-02-13T02:42:20.032Z,17.40
2018-02-13T02:43:20.024Z,17.00
2018-02-13T02:44:20.017Z,16.70
2018-02-13T02:45:20.005Z,17.00
2018-02-13T02:46:19.995Z,17.10
2018-02-13T02:47:19.992Z,16.60
2018-02-13T02:48:19.975Z,16.20
2018-02-13T02:49:19.963Z,17.20
2018-02-13T02:50:19.955Z,17.10
2018-02-13T02:51:19.943Z,16.90
2018-02-13T02:52:19.935Z,17.80
2018-02-13T02:53:19.925Z,17.30
2018-02-13T02:54:19.915Z,16.80
2018-02-13T02:55:19.906Z,17.50
2018-02-13T02:56:19.896Z,17.60
2018-02-13T02:57:19.881Z,16.80
2018-02-13T02:58:19.873Z,17.20
2018-02-13T02:59:19.861Z,18.00
2018-02-13T03:00:19.855Z,17.60
2018-02-13T03:01:19.848Z,17.00
2018-02-13T03:02:19.833Z,18.00
2018-02-13T03:03:19.823Z,17.00
2018-02-13T03:04:19.818Z,17.80
2018-02-13T03:05:19.801Z,17.20
2018-02-13T03:06:19.795Z,18.20
2018-02-13T03:07:19.783Z,17.90
2018-02-13T03:08:19.776Z,17.60
2018-02-13T03:09:19.766Z,18.30
2018-02-13T03:10:19.757Z,17.70
2018-02-13T03:11:19.739Z,17.00
2018-02-13T03:12:19.738Z,17.10
2018-02-13T03:13:19.723Z,16.80
2018-02-13T03:14:19.715Z,16.60
2018-02-13T03:15:19.711Z,18.00
2018-02-13T03:16:19.696Z,17.50
2018-02-13T03:17:19.685Z,17.30
2018-02-13T03:18:19.675Z,16.80
2018-02-13T03:19:19.665Z,17.00
2018-02-13T03:20:19.660Z,17.00
2018-02-13T03:21:19.651Z,18.00
2018-02-13T03:22:19.634Z,18.10
2018-02-13T03:23:19.629Z,18.20
2018-02-13T03:24:19.616Z,18.10
2018-02-13T03:25:19.608Z,18.50
2018-02-13T03:26:19.598Z,18.00
2018-02-13T03:27:19.588Z,18.10
2018-02-13T03:28:19.575Z,18.80
2018-02-13T03:29:19.569Z,18.70
2018-02-13T03:30:19.557Z,19.00
2018-02-13T03:31:19.619Z,18.70
2018-02-13T03:32:19.534Z,18.60
2018-02-13T03:33:19.532Z,18.80
2018-02-13T03:34:19.517Z,18.50
2018-02-13T03:35:19.508Z,18.60
2018-02-13T03:36:19.495Z,18.90
2018-02-13T03:37:19.488Z,19.50
2018-02-13T03:38:19.483Z,18.70
2018-02-13T03:39:19.479Z,19.10
2018-02-13T03:40:19.459Z,19.30
2018-02-13T03:41:19.450Z,18.90
2018-02-13T03:42:19.435Z,19.70
2018-02-13T03:43:19.436Z,19.40
2018-02-13T03:44:19.421Z,19.90
2018-02-13T03:45:19.409Z,19.40
2018-02-13T03:46:19.398Z,19.50
2018-02-13T03:47:19.388Z,19.10
2018-02-13T03:48:19.375Z,18.90
2018-02-13T03:49:19.374Z,19.90
2018-02-13T03:50:19.364Z,19.20
2018-02-13T03:51:19.351Z,19.40
2018-02-13T03:52:19.338Z,20.20
2018-02-13T03:53:19.328Z,20.00
2018-02-13T03:54:19.316Z,19.60
2018-02-13T03:55:19.308Z,19.40
2018-02-13T03:56:19.298Z,19.40
2018-02-13T03:57:19.289Z,19.00
2018-02-13T03:58:19.284Z,20.00
2018-02-13T03:59:19.266Z,20.00
2018-02-13T04:00:19.259Z,20.40
2018-02-13T04:01:19.261Z,20.10
2018-02-13T04:02:19.238Z,20.20
2018-02-13T04:03:19.227Z,20.50
2018-02-13T04:04:19.222Z,21.50
2018-02-13T04:05:19.209Z,20.80
2018-02-13T04:06:19.197Z,20.40
2018-02-13T04:07:19.187Z,21.00
2018-02-13T04:08:19.178Z,21.70
2018-02-13T04:09:19.167Z,21.30
2018-02-13T04:10:19.159Z,21.50
2018-02-13T04:11:19.144Z,21.30
2018-02-13T04:12:19.136Z,21.80
2018-02-13T04:13:19.134Z,21.50
2018-02-13T04:14:19.116Z,21.70
2018-02-13T04:15:19.107Z,21.60
2018-02-13T04:16:19.097Z,21.50
2018-02-13T04:17:19.081Z,22.40
2018-02-13T04:18:19.075Z,21.60
2018-02-13T04:19:19.069Z,21.80
2018-02-13T04:20:19.053Z,22.20
2018-02-13T04:21:19.044Z,21.30
2018-02-13T04:22:19.034Z,22.80
2018-02-13T04:23:19.020Z,21.80
2018-02-13T04:24:19.014Z,22.20
2018-02-13T04:25:19.002Z,21.40
2018-02-13T04:26:18.996Z,22.00
2018-02-13T04:27:18.982Z,22.40
2018-02-13T04:28:18.973Z,22.60
2018-02-13T04:29:18.966Z,22.20
2018-02-13T04:30:18.956Z,21.60
2018-02-13T04:31:18.941Z,21.30
2018-02-13T04:32:18.931Z,20.70
2018-02-13T04:33:18.920Z,22.00
2018-02-13T04:34:18.911Z,21.70
2018-02-13T04:35:18.899Z,22.00
2018-02-13T04:36:18.889Z,22.80
2018-02-13T04:37:18.882Z,22.40
2018-02-13T04:38:18.868Z,23.10
2018-02-13T04:39:18.857Z,22.10
2018-02-13T04:40:18.849Z,21.40
2018-02-13T04:41:18.837Z,22.90
2018-02-13T04:42:18.826Z,22.60
2018-02-13T04:43:18.829Z,21.20
2018-02-13T04:44:18.807Z,21.90
2018-02-13T04:45:18.797Z,21.60
2018-02-13T04:46:18.790Z,22.20
2018-02-13T04:47:18.776Z,21.40
2018-02-13T04:48:18.765Z,21.90
2018-02-13T04:49:18.762Z,22.50
2018-02-13T04:50:18.744Z,21.60
2018-02-13T04:51:18.734Z,22.50
2018-02-13T04:52:18.724Z,21.90
2018-02-13T04:53:18.712Z,22.00
2018-02-13T04:54:18.702Z,21.80
2018-02-13T04:55:18.691Z,22.60
2018-02-13T04:56:18.682Z,22.20
2018-02-13T04:57:18.673Z,22.80
2018-02-13T04:58:18.660Z,22.20
2018-02-13T04:59:18.652Z,22.70
2018-02-13T05:00:18.642Z,23.00
2018-02-13T05:01:18.631Z,23.20
2018-02-13T05:02:18.619Z,23.60
2018-02-13T05:03:18.612Z,23.30
2018-02-13T05:04:18.602Z,23.30
2018-02-13T05:05:18.587Z,23.50
2018-02-13T05:06:18.579Z,23.00
2018-02-13T05:07:18.566Z,24.30
2018-02-13T05:08:18.557Z,24.80
2018-02-13T05:09:18.548Z,24.40
2018-02-13T05:10:18.538Z,25.00
2018-02-13T05:11:18.525Z,24.50
2018-02-13T05:12:18.516Z,24.40
2018-02-13T05:13:18.504Z,23.70
2018-02-13T05:14:18.495Z,23.90
2018-02-13T05:15:18.485Z,24.10
2018-02-13T05:16:18.478Z,24.20
2018-02-13T05:17:18.462Z,25.70
2018-02-13T05:18:18.451Z,24.90
2018-02-13T05:19:18.442Z,24.70
2018-02-13T05:20:18.436Z,25.80
2018-02-13T05:21:18.422Z,26.80
2018-02-13T05:22:18.418Z,26.10
2018-02-13T05:23:18.399Z,26.30
2018-02-13T05:24:18.389Z,25.50
2018-02-13T05:25:18.379Z,26.00
2018-02-13T05:26:18.369Z,25.00
2018-02-13T05:27:18.359Z,26.20
2018-02-13T05:28:18.353Z,25.50
2018-02-13T05:29:18.337Z,26.40
2018-02-13T05:30:18.327Z,26.10
2018-02-13T05:31:18.316Z,27.10
2018-02-13T05:32:18.307Z,26.30
2018-02-13T05:33:18.295Z,25.60
2018-02-13T05:34:18.292Z,27.00
2018-02-13T05:35:18.274Z,27.70
2018-02-13T05:36:18.263Z,27.10
2018-02-13T05:37:18.254Z,26.50
2018-02-13T05:38:18.241Z,27.10
2018-02-13T05:39:18.233Z,26.40
2018-02-13T05:40:18.228Z,26.90
2018-02-13T05:41:18.210Z,25.60
2018-02-13T05:42:18.201Z,27.90
2018-02-13T05:43:18.191Z,28.40
2018-02-13T05:44:18.179Z,27.70
2018-02-13T05:45:18.169Z,27.80
2018-02-13T05:46:18.164Z,27.20
2018-02-13T05:47:18.147Z,26.60
2018-02-13T05:48:18.132Z,27.30
2018-02-13T05:49:18.130Z,28.00
2018-02-13T05:50:18.116Z,28.20
2018-02-13T05:51:18.105Z,28.30
2018-02-13T05:52:18.104Z,27.80
2018-02-13T05:53:18.090Z,27.30
2018-02-13T05:54:18.070Z,28.40
2018-02-13T05:55:18.065Z,27.20
2018-02-13T05:56:18.056Z,27.30
2018-02-13T05:57:18.044Z,28.60
2018-02-13T05:58:18.083Z,27.60
2018-02-13T05:59:18.022Z,27.10
2018-02-13T06:00:18.013Z,27.40
2018-02-13T06:01:18.000Z,27.70
2018-02-13T06:02:17.990Z,26.90
2018-02-13T06:03:17.981Z,27.50
2018-02-13T06:04:17.968Z,27.50
2018-02-13T06:05:17.958Z,28.50
2018-02-13T06:06:17.945Z,28.50
2018-02-13T06:07:17.938Z,28.40
2018-02-13T06:08:17.929Z,29.00
2018-02-13T06:09:17.917Z,29.50
2018-02-13T06:10:17.903Z,28.90
2018-02-13T06:11:17.895Z,28.60
2018-02-13T06:12:17.882Z,30.10
2018-02-13T06:13:17.871Z,28.80
2018-02-13T06:14:17.862Z,30.30
2018-02-13T06:15:17.850Z,28.40
2018-02-13T06:16:17.841Z,29.20
2018-02-13T06:17:17.832Z,30.10
2018-02-13T06:18:17.819Z,29.40
2018-02-13T06:19:17.809Z,29.60
2018-02-13T06:20:17.798Z,29.80
2018-02-13T06:21:17.787Z,30.10
2018-02-13T06:22:17.774Z,30.50
2018-02-13T06:23:17.767Z,29.90
2018-02-13T06:24:17.758Z,30.70
2018-02-13T06:25:17.745Z,30.90
2018-02-13T06:26:17.734Z,31.60
2018-02-13T06:27:17.726Z,31.00
2018-02-13T06:28:17.715Z,31.80
2018-02-13T06:29:17.704Z,30.80
2018-02-13T06:30:17.690Z,30.10
2018-02-13T06:31:17.683Z,30.00
2018-02-13T06:32:17.673Z,31.50
2018-02-13T06:33:17.662Z,33.20
2018-02-13T06:34:17.725Z,32.20
2018-02-13T06:35:17.638Z,31.70
2018-02-13T06:36:17.627Z,33.70
2018-02-13T06:37:17.616Z,31.40
2018-02-13T06:38:17.604Z,31.70
2018-02-13T06:39:17.596Z,32.60
2018-02-13T06:40:17.582Z,32.70
2018-02-13T06:41:17.572Z,32.00
2018-02-13T06:42:17.563Z,32.80
2018-02-13T06:43:17.555Z,32.70
2018-02-13T06:44:17.541Z,32.20
2018-02-13T06:45:17.535Z,32.00
2018-02-13T06:46:17.518Z,32.60
2018-02-13T06:47:17.508Z,32.10
2018-02-13T06:48:17.498Z,32.30
2018-02-13T06:49:17.486Z,32.10
2018-02-13T06:50:17.476Z,32.80
2018-02-13T06:51:17.466Z,32.40
2018-02-13T06:52:17.460Z,32.70
2018-02-13T06:53:17.447Z,32.60
2018-02-13T06:54:17.433Z,32.80
2018-02-13T06:55:17.424Z,32.50
2018-02-13T06:56:17.413Z,32.00
2018-02-13T06:57:17.402Z,31.80
2018-02-13T06:58:17.391Z,32.70
2018-02-13T06:59:17.376Z,32.30
2018-02-13T07:00:17.369Z,32.00
2018-02-13T07:01:17.362Z,31.30
2018-02-13T07:02:17.347Z,32.00
2018-02-13T07:03:17.336Z,32.70
2018-02-13T07:04:17.332Z,32.70
2018-02-13T07:05:17.313Z,32.30
2018-02-13T07:06:17.303Z,32.30
2018-02-13T07:07:17.295Z,32.40
2018-02-13T07:08:17.284Z,32.40
2018-02-13T07:09:17.273Z,32.20
2018-02-13T07:10:17.302Z,32.70
2018-02-13T07:11:17.250Z,31.70
2018-02-13T07:12:17.241Z,32.20
2018-02-13T07:13:17.232Z,32.00
2018-02-13T07:14:17.221Z,31.30
2018-02-13T07:15:17.210Z,32.20
2018-02-13T07:16:17.200Z,31.20
2018-02-13T07:17:17.188Z,32.10
2018-02-13T07:18:17.177Z,31.50
2018-02-13T07:19:17.168Z,31.50
2018-02-13T07:20:17.155Z,32.50
2018-02-13T07:21:17.143Z,31.60
2018-02-13T07:22:17.138Z,32.20
2018-02-13T07:23:17.129Z,32.20
2018-02-13T07:24:17.113Z,31.60
2018-02-13T07:25:17.109Z,31.00
2018-02-13T07:26:17.095Z,31.00
2018-02-13T07:27:17.083Z,31.20
2018-02-13T07:28:17.076Z,30.70
2018-02-13T07:29:17.062Z,31.10
2018-02-13T07:30:17.052Z,30.50
2018-02-13T07:31:17.043Z,31.00
2018-02-13T07:32:17.031Z,30.90
2018-02-13T07:33:17.022Z,30.80
2018-02-13T07:34:17.010Z,31.60
2018-02-13T07:35:16.999Z,30.60
2018-02-13T07:36:16.992Z,30.00
2018-02-13T07:37:16.979Z,30.00
2018-02-13T07:38:16.970Z,30.00
2018-02-13T07:39:16.956Z,30.50
2018-02-13T07:40:16.951Z,31.00
2018-02-13T07:41:16.939Z,29.40
2018-02-13T07:42:16.929Z,29.80
2018-02-13T07:43:16.919Z,29.90
2018-02-13T07:44:16.909Z,29.50
2018-02-13T07:45:16.898Z,28.80
2018-02-13T07:46:16.888Z,29.20
2018-02-13T07:47:16.876Z,29.20
2018-02-13T07:48:16.867Z,28.50
2018-02-13T07:49:16.855Z,28.50
2018-02-13T07:50:16.845Z,29.10
2018-02-13T07:51:16.836Z,29.10
2018-02-13T07:52:16.825Z,28.70
2018-02-13T07:53:16.813Z,28.90
2018-02-13T07:54:16.821Z,27.90
2018-02-13T07:55:16.795Z,29.60
2018-02-13T07:56:16.785Z,28.50
2018-02-13T07:57:16.776Z,29.80
2018-02-13T07:58:16.764Z,29.50
2018-02-13T07:59:16.752Z,29.10
2018-02-13T08:00:16.746Z,29.00
2018-02-13T08:01:16.738Z,28.70
2018-02-13T08:02:16.759Z,28.70
2018-02-13T08:03:16.715Z,27.90
2018-02-13T08:04:16.705Z,27.20
2018-02-13T08:05:16.692Z,27.60
2018-02-13T08:06:16.683Z,27.40
2018-02-13T08:07:16.674Z,26.90
2018-02-13T08:08:16.665Z,26.30
2018-02-13T08:09:16.656Z,27.00
2018-02-13T08:10:16.645Z,26.20
2018-02-13T08:11:16.630Z,26.10
2018-02-13T08:12:16.626Z,26.10
2018-02-13T08:13:16.614Z,26.50
2018-02-13T08:14:16.605Z,26.80
2018-02-13T08:15:16.595Z,26.50
2018-02-13T08:16:16.586Z,26.20
2018-02-13T08:17:16.580Z,27.80
2018-02-13T08:18:16.565Z,25.90
2018-02-13T08:19:16.555Z,25.60
2018-02-13T08:20:16.547Z,26.20
2018-02-13T08:21:16.540Z,25.80
2018-02-13T08:22:16.526Z,26.30
2018-02-13T08:23:16.515Z,25.40
2018-02-13T08:24:16.508Z,26.20
2018-02-13T08:25:16.497Z,27.20
2018-02-13T08:26:16.485Z,26.70
2018-02-13T08:27:16.477Z,25.10
2018-02-13T08:28:16.468Z,24.70
2018-02-13T08:29:16.456Z,26.30
2018-02-13T08:30:16.446Z,25.50
2018-02-13T08:31:16.436Z,26.40
2018-02-13T08:32:16.429Z,25.90
2018-02-13T08:33:16.418Z,25.40
2018-02-13T08:34:16.409Z,25.40
2018-02-13T08:35:16.398Z,25.40
2018-02-13T08:36:16.386Z,26.10
2018-02-13T08:37:16.380Z,26.30
2018-02-13T08:38:16.367Z,25.20
2018-02-13T08:39:16.360Z,25.20
2018-02-13T08:40:16.349Z,24.00
2018-02-13T08:41:16.340Z,24.30
2018-02-13T08:42:16.326Z,23.80
2018-02-13T08:43:16.321Z,24.40
2018-02-13T08:44:16.319Z,24.20
2018-02-13T08:45:16.301Z,24.20
2018-02-13T08:46:16.299Z,24.40
2018-02-13T08:47:16.284Z,25.10
2018-02-13T08:48:16.274Z,24.60
2018-02-13T08:49:16.264Z,24.40
2018-02-13T08:50:16.255Z,25.00
2018-02-13T08:51:16.246Z,24.80
2018-02-13T08:52:16.238Z,24.00
2018-02-13T08:53:16.228Z,22.40
2018-02-13T08:54:16.217Z,23.60
2018-02-13T08:55:16.204Z,23.10
2018-02-13T08:56:16.199Z,23.10
2018-02-13T08:57:16.191Z,23.30
2018-02-13T08:58:16.181Z,24.00
2018-02-13T08:59:16.172Z,24.20
2018-02-13T09:00:16.161Z,23.20
2018-02-13T09:01:16.151Z,22.80
2018-02-13T09:02:16.146Z,23.20
2018-02-13T09:03:16.135Z,23.60
2018-02-13T09:04:16.126Z,23.70
2018-02-13T09:05:16.121Z,23.60
2018-02-13T09:06:16.155Z,22.10
2018-02-13T09:07:16.097Z,22.70
2018-02-13T09:08:16.092Z,21.80
2018-02-13T09:09:16.081Z,23.00
2018-02-13T09:10:16.071Z,23.10
2018-02-13T09:11:16.063Z,24.70
2018-02-13T09:12:16.064Z,24.10
2018-02-13T09:13:16.047Z,24.50
2018-02-13T09:14:16.037Z,24.40
2018-02-13T09:15:16.032Z,24.80
2018-02-13T09:16:16.020Z,23.90
2018-02-13T09:17:16.009Z,23.80
2018-02-13T09:18:16.001Z,23.50
2018-02-13T09:19:15.992Z,23.30
2018-02-13T09:20:15.990Z,22.80
2018-02-13T09:21:15.971Z,22.70
2018-02-13T09:22:15.965Z,22.30
2018-02-13T09:23:15.958Z,22.20
2018-02-13T09:24:15.943Z,21.20
2018-02-13T09:25:15.946Z,21.30
2018-02-13T09:26:15.929Z,21.30
2018-02-13T09:27:15.921Z,21.30
2018-02-13T09:28:15.911Z,20.70
2018-02-13T09:29:15.906Z,19.70
2018-02-13T09:30:15.899Z,20.50
2018-02-13T09:31:15.886Z,21.50
2018-02-13T09:32:15.880Z,21.90
2018-02-13T09:33:15.869Z,21.30
2018-02-13T09:34:15.898Z,21.10
2018-02-13T09:35:15.849Z,21.40
2018-02-13T09:36:15.841Z,21.20
2018-02-13T09:37:15.834Z,21.40
2018-02-13T09:38:15.827Z,22.00
2018-02-13T09:39:15.815Z,21.10
2018-02-13T09:40:15.810Z,21.00
2018-02-13T09:41:15.797Z,20.60
2018-02-13T09:42:15.789Z,20.70
2018-02-13T09:43:15.779Z,20.00
2018-02-13T09:44:15.770Z,20.20
2018-02-13T09:45:15.762Z,20.60
2018-02-13T09:46:15.753Z,21.00
2018-02-13T09:47:15.743Z,20.40
2018-02-13T09:48:15.736Z,21.20
2018-02-13T09:49:15.729Z,21.20
2018-02-13T09:50:15.717Z,20.70
2018-02-13T09:51:15.715Z,20.90
2018-02-13T09:52:15.699Z,21.40
2018-02-13T09:53:15.692Z,21.70
2018-02-13T09:54:15.681Z,21.90
2018-02-13T09:55:15.675Z,21.40
2018-02-13T09:56:15.667Z,20.10
2018-02-13T09:57:15.657Z,20.60
2018-02-13T09:58:15.647Z,21.00
2018-02-13T09:59:15.638Z,21.50
2018-02-13T10:00:15.631Z,20.70
2018-02-13T10:01:15.622Z,21.40
2018-02-13T10:02:15.613Z,20.70
2018-02-13T10:03:15.619Z,20.80
2018-02-13T10:04:15.597Z,20.90
2018-02-13T10:05:15.590Z,21.20
2018-02-13T10:06:15.578Z,22.50
2018-02-13T10:07:15.566Z,22.10
2018-02-13T10:08:15.561Z,22.50
2018-02-13T10:09:15.555Z,21.80
2018-02-13T10:10:15.545Z,22.70
2018-02-13T10:11:15.535Z,18.70
2018-02-13T10:12:15.527Z,19.00
2018-02-13T10:13:15.519Z,20.30
2018-02-13T10:14:15.508Z,20.20
2018-02-13T10:15:15.502Z,20.80
2018-02-13T10:16:15.494Z,19.70
2018-02-13T10:17:15.487Z,19.70
2018-02-13T10:18:15.481Z,19.90
2018-02-13T10:19:15.469Z,20.50
2018-02-13T10:20:15.460Z,20.20
2018-02-13T10:21:15.451Z,20.40
2018-02-13T10:22:15.442Z,20.20
2018-02-13T10:23:15.434Z,20.60
2018-02-13T10:24:15.428Z,19.70
2018-02-13T10:25:15.425Z,19.50
2018-02-13T10:26:15.409Z,20.20
2018-02-13T10:27:15.402Z,19.60
2018-02-13T10:28:15.392Z,19.60
2018-02-13T10:29:15.389Z,19.70
2018-02-13T10:30:15.375Z,18.70
2018-02-13T10:31:15.368Z,18.80
2018-02-13T10:32:15.363Z,18.60
2018-02-13T10:33:15.353Z,18.90
2018-02-13T10:34:15.363Z,18.20
2018-02-13T10:35:15.336Z,20.00
2018-02-13T10:36:15.328Z,18.50
2018-02-13T10:37:15.320Z,17.80
2018-02-13T10:38:15.312Z,18.00
2018-02-13T10:39:15.307Z,17.30
2018-02-13T10:40:15.296Z,16.70
2018-02-13T10:41:15.287Z,17.50
2018-02-13T10:42:15.278Z,15.90
2018-02-13T10:43:15.270Z,16.60
2018-02-13T10:44:15.268Z,15.20
2018-02-13T10:45:15.256Z,14.50
2018-02-13T10:46:15.246Z,15.10
2018-02-13T10:47:15.238Z,15.30
2018-02-13T10:48:15.226Z,15.30
2018-02-13T10:49:15.229Z,15.60
2018-02-13T10:50:15.214Z,16.50
2018-02-13T10:51:15.208Z,15.60
2018-02-13T10:52:15.199Z,15.80
2018-02-13T10:53:15.190Z,15.50
2018-02-13T10:54:15.183Z,14.40
2018-02-13T10:55:15.174Z,14.70
2018-02-13T10:56:15.172Z,14.00
2018-02-13T10:57:15.156Z,13.60
2018-02-13T10:58:15.150Z,13.40
2018-02-13T10:59:15.145Z,14.00
2018-02-13T11:00:15.134Z,13.30
2018-02-13T11:01:15.126Z,13.00
2018-02-13T11:02:15.143Z,13.20
2018-02-13T11:03:15.119Z,12.40
2018-02-13T11:04:15.119Z,13.10
2018-02-13T11:05:15.116Z,12.80
2018-02-13T11:06:15.087Z,12.70
2018-02-13T11:07:15.081Z,12.20
2018-02-13T11:08:15.069Z,12.50
2018-02-13T11:09:15.066Z,12.10
2018-02-13T11:10:15.058Z,11.30
2018-02-13T11:11:15.051Z,11.00
2018-02-13T11:12:15.041Z,10.50
2018-02-13T11:13:15.035Z,10.60
2018-02-13T11:14:15.028Z,11.10
2018-02-13T11:15:15.016Z,10.00
2018-02-13T11:16:15.011Z,9.40
2018-02-13T11:17:15.004Z,9.20
2018-02-13T11:18:14.996Z,9.70
2018-02-13T11:19:14.991Z,9.70
2018-02-13T11:20:14.981Z,10.00
2018-02-13T11:21:14.978Z,10.70
2018-02-13T11:22:14.965Z,10.90
2018-02-13T11:23:14.956Z,10.70
2018-02-13T11:24:14.949Z,10.90
2018-02-13T11:25:14.941Z,11.00
2018-02-13T11:26:14.983Z,11.10
2018-02-13T11:27:14.929Z,10.90
2018-02-13T11:28:14.917Z,10.00
2018-02-13T11:29:14.912Z,10.10
2018-02-13T11:30:14.904Z,10.30
2018-02-13T11:31:14.895Z,10.10
2018-02-13T11:32:14.889Z,10.00
2018-02-13T11:33:14.882Z,10.90
2018-02-13T11:34:14.871Z,9.90
2018-02-13T11:35:14.870Z,10.60
2018-02-13T11:36:14.858Z,10.30
2018-02-13T11:37:14.851Z,11.10
2018-02-13T11:38:14.841Z,11.10
2018-02-13T11:39:14.849Z,11.10
2018-02-13T11:40:14.829Z,10.40
2018-02-13T11:41:14.821Z,10.90
2018-02-13T11:42:14.815Z,10.60
2018-02-13T11:43:14.806Z,10.30
2018-02-13T11:44:14.846Z,9.90
2018-02-13T11:45:14.788Z,10.10
2018-02-13T11:46:14.783Z,10.10
2018-02-13T11:47:14.777Z,9.70
2018-02-13T11:48:14.802Z,9.90
2018-02-13T11:49:14.762Z,10.10
2018-02-13T11:50:14.758Z,10.20
2018-02-13T11:51:14.747Z,10.60
2018-02-13T11:52:14.741Z,10.80
2018-02-13T11:53:14.732Z,11.10
2018-02-13T11:54:14.725Z,10.20
2018-02-13T11:55:14.718Z,10.90
2018-02-13T11:56:14.712Z,10.90
2018-02-13T11:57:14.710Z,10.30
2018-02-13T11:58:14.697Z,9.60
2018-02-13T11:59:14.695Z,9.70
2018-02-13T12:00:14.685Z,9.40
2018-02-13T12:01:14.680Z,9.60
2018-02-13T12:02:14.670Z,9.50
2018-02-13T12:03:14.665Z,9.70
2018-02-13T12:04:14.656Z,9.80
2018-02-13T12:05:14.652Z,9.20
2018-02-13T12:06:14.637Z,9.50
2018-02-13T12:07:14.635Z,9.30
2018-02-13T12:08:14.668Z,9.50
2018-02-13T12:09:14.622Z,9.80
2018-02-13T12:10:14.615Z,9.20
2018-02-13T12:11:14.608Z,10.20
2018-02-13T12:12:14.607Z,9.10
2018-02-13T12:13:14.594Z,9.30
2018-02-13T12:14:14.586Z,9.60
2018-02-13T12:15:14.578Z,9.40
2018-02-13T12:16:14.573Z,9.50
2018-02-13T12:17:14.567Z,8.40
2018-02-13T12:18:14.560Z,8.60
2018-02-13T12:19:14.566Z,8.70
2018-02-13T12:20:14.545Z,8.70
2018-02-13T12:21:14.543Z,8.50
2018-02-13T12:22:14.533Z,9.00
2018-02-13T12:23:14.566Z,9.10
2018-02-13T12:24:14.519Z,9.40
2018-02-13T12:25:14.515Z,9.10
2018-02-13T12:26:14.504Z,8.80
2018-02-13T12:27:14.502Z,8.60
2018-02-13T12:28:14.491Z,8.70
2018-02-13T12:29:14.489Z,9.40
2018-02-13T12:30:14.475Z,9.00
2018-02-13T12:31:14.474Z,8.90
2018-02-13T12:32:14.465Z,8.90
2018-02-13T12:33:14.496Z,8.70
2018-02-13T12:34:14.451Z,8.70
2018-02-13T12:35:14.447Z,8.10
2018-02-13T12:36:14.438Z,7.90
2018-02-13T12:37:14.433Z,7.70
2018-02-13T12:38:14.423Z,7.70
2018-02-13T12:39:14.420Z,7.50
2018-02-13T12:40:14.415Z,7.70
2018-02-13T12:41:14.406Z,7.80
2018-02-13T12:42:14.397Z,7.80
2018-02-13T12:43:14.394Z,7.90
2018-02-13T12:44:14.385Z,7.30
2018-02-13T12:45:14.383Z,7.20
2018-02-13T12:46:14.371Z,7.00
2018-02-13T12:47:14.369Z,6.90
2018-02-13T12:48:14.360Z,7.50
2018-02-13T12:49:14.352Z,7.30
2018-02-13T12:50:14.349Z,7.20
2018-02-13T12:51:14.378Z,7.30
2018-02-13T12:52:14.330Z,7.20
2018-02-13T12:53:14.326Z,7.60
2018-02-13T12:54:14.319Z,7.40